DRI-NNSC Building Weather observations

Data are for 10 minute period ending at time listed.
 Day   Time   Solar   Ave.   Ave.  Ave.  Vector  Max.   Baro.   Total    
  of    of     Rad.   Air    Rel.  Wind   Wind   Wind  Press.  Precip.   
Year   Day            Temp.  Hum.  Speed  Dir.   Gust                    
2014   (PST)  Kw/m2    F      %     mph   deg.    mph    mb.     in.     
-------------------------------------------------------------------------
 353    0:10   0.00   36.4    72    3.0   307      6   850.1    0.00 
 353    0:20   0.00   35.6    76    3.3   317      6   850.1    0.00 
 353    0:30   0.00   37.1    72    3.5   334      5   850.2    0.00 
 353    0:40   0.00   39.0    66    2.5   332      5   850.2    0.00 
 353    0:50   0.00   39.8    63    4.5    32      8   850.1    0.00 
 353    1:00   0.00   38.6    64    4.6    63      8   849.8    0.00 
 353    1:10   0.00   42.3    43    4.6   189     11   849.5    0.00 
 353    1:20   0.00   41.7    46    4.5   145      9   849.4    0.00 
 353    1:30   0.00   38.4    63    2.2   102      5   849.6    0.00 
 353    1:40   0.00   36.8    70    3.9    86      6   849.6    0.00 
 353    1:50   0.00   36.7    71    5.0    61      7   849.9    0.00 
 353    2:00   0.00   38.6    58    1.6    31      5   850.0    0.00 
 353    2:10   0.00   40.9    47    2.1   267      4   850.1    0.00 
 353    2:20   0.00   42.0    40    3.9   277     11   850.3    0.00 
 353    2:30   0.00   42.1    38    6.7   312     16   850.4    0.00 
 353    2:40   0.00   43.8    31    7.0   246     17   850.4    0.00 
 353    2:50   0.00   43.6    32    7.0   241     13   850.4    0.00 
 353    3:00   0.00   43.1    32    4.2   247      9   850.3    0.00 
 353    3:10   0.00   42.9    32    4.4   224      9   850.2    0.00 
 353    3:20   0.00   42.1    35    4.1   226      7   850.1    0.00 
 353    3:30   0.00   42.8    32    8.2   243     13   849.8    0.00 
 353    3:40   0.00   39.8    46    3.3   181      9   849.6    0.00 
 353    3:50   0.00   39.4    47    4.0   166      7   849.5    0.00 
 353    4:00   0.00   38.9    52    6.1    88     10   849.5    0.00 
 353    4:10   0.00   38.8    52    4.5    36      7   849.6    0.00 
 353    4:20   0.00   39.0    48    3.7   359      8   849.4    0.00 
 353    4:30   0.00   40.0    44    3.6    36      5   849.3    0.00 
 353    4:40   0.00   40.8    40    3.8    55      5   849.2    0.00 
 353    4:50   0.00   39.4    45    3.4   326      7   849.1    0.00 
 353    5:00   0.00   40.4    40    4.0   311      9   849.1    0.00 
 353    5:10   0.00   40.0    42    4.9   311     10   849.1    0.00 
 353    5:20   0.00   41.4    38    3.9   277      8   849.1    0.00 
 353    5:30   0.00   41.0    38    3.6   304      6   849.2    0.00 
 353    5:40   0.00   41.6    36    3.0   284      5   849.1    0.00 
 353    5:50   0.00   42.5    32    4.9   260      9   848.9    0.00 
 353    6:00   0.00   41.8    34    4.7   230      9   848.8    0.00 
 353    6:10   0.00   41.8    33    6.9   234     12   848.7    0.00 
 353    6:20   0.00   41.8    34    5.3   249     12   849.0    0.00 
 353    6:30   0.00   38.9    42    4.0    59      7   849.2    0.00 
 353    6:40   0.00   38.8    43    2.4   141      7   849.2    0.00 
 353    6:50   0.00   39.0    42    1.9   190      5   849.1    0.00 
 353    7:00   0.00   41.0    38    2.2   217      4   848.8    0.00 
 353    7:10   0.00   41.3    38    3.2   284      7   848.9    0.00 
 353    7:20   0.01   42.5    35    3.1   282      5   849.1    0.00 
 353    7:30   0.01   42.4    36    1.7   344      4   849.0    0.00 
 353    7:40   0.01   41.4    37    2.6     7      5   848.9    0.00 
 353    7:50   0.02   42.2    37    3.0   314      5   848.8    0.00 
 353    8:00   0.04   42.8    36    1.4   331      4   848.9    0.00 
 353    8:10   0.09   43.3    37    2.4    64      7   849.1    0.00 
 353    8:20   0.09   41.0    43    4.6    47      7   849.2    0.00 
 353    8:30   0.11   43.4    38    2.4    34      4   849.3    0.00 
 353    8:40   0.13   45.1    37    1.7   355      4   849.3    0.00 
 353    8:50   0.12   45.5    38    3.5   317      7   849.6    0.00 
 353    9:00   0.11   45.3    40    5.4   330     10   849.6    0.00 
 353    9:10   0.13   43.4    42    4.0    38      8   849.8    0.00 
 353    9:20   0.16   42.6    41    4.6    64      8   849.8    0.00 
 353    9:30   0.20   43.4    41    4.9    66      7   849.8    0.00 
 353    9:40   0.23   44.5    39    4.8    51      8   849.9    0.00 
 353    9:50   0.23   46.0    38    4.2    76     10   850.0    0.00 
 353   10:00   0.25   45.9    37    4.3    82      8   850.1    0.00 
 353   10:10   0.13   45.4    37    4.0    78      6   850.2    0.00 
 353   10:20   0.10   45.4    37    2.4    50      5   850.3    0.00 
 353   10:30   0.14   45.6    36    2.2    47      3   850.2    0.00 
 353   10:40   0.11   45.8    44    3.2   279      7   850.2    0.00 
 353   10:50   0.12   45.1    56    4.0   237     10   850.2    0.00 
 353   11:00   0.14   44.7    58    5.9   225     11   850.2    0.00 
 353   11:10   0.10   44.5    60    6.2   212     13   850.3    0.00 
 353   11:20   0.11   43.7    64    8.8   226     15   850.3    0.00 
 353   11:30   0.11   42.6    72    7.5   235     14   850.2    0.00 
 353   11:40   0.13   42.5    73    6.6   237     13   850.3    0.00 
 353   11:50   0.12   42.3    73    7.2   235     15   850.3    0.00 
 353   12:00   0.10   42.6    72    6.3   242     13   850.4    0.00 
 353   12:10   0.11   42.7    72    5.1   241     10   850.5    0.00 
 353   12:20   0.11   42.7    70    9.2   232     18   850.5    0.00 
 353   12:30   0.11   43.0    67   11.9   236     21   850.5    0.00 
 353   12:40   0.11   42.8    66   15.7   238     27   850.4    0.00 
 353   12:50   0.07   42.0    68   14.6   239     26   850.5    0.00 
 353   13:00   0.07   41.5    68   14.9   238     28   850.5    0.00 
 353   13:10   0.05   41.0    68   16.0   239     27   850.5    0.00 
 353   13:20   0.04   40.2    72   13.1   242     25   850.5    0.00 
 353   13:30   0.06   39.8    74   10.6   237     20   850.4    0.00 
 353   13:40   0.08   40.0    73    9.6   234     16   850.1    0.00 
 353   13:50   0.07   40.6    71    7.7   227     13   850.3    0.00 
 353   14:00   0.07   41.1    69    7.0   219     12   850.2    0.00 
 353   14:10   0.08   42.2    64    5.6   192     13   850.2    0.00 
 353   14:20   0.10   42.5    63    4.6   181     12   850.2    0.00 
 353   14:30   0.09   42.2    65    6.2    35      9   850.2    0.00 
 353   14:40   0.07   42.3    63    4.3    55      9   850.3    0.00 
 353   14:50   0.12   42.7    61    8.3    45     14   850.2    0.00 
 353   15:00   0.06   43.2    59    7.5    23     14   850.1    0.00 
 353   15:10   0.05   43.4    59    5.1     4     13   850.2    0.00 
 353   15:20   0.08   43.1    63    3.8   204     11   850.3    0.00 
 353   15:30   0.09   43.4    60    5.1   294     14   850.2    0.00 
 353   15:40   0.08   43.4    60    4.1   240      9   850.1    0.00 
 353   15:50   0.06   43.3    62    7.3   239     15   850.1    0.00 
 353   16:00   0.05   43.0    63    8.6   260     15   850.1    0.00 
 353   16:10   0.02   42.7    66   10.3   235     19   850.1    0.00 
 353   16:20   0.01   42.0    70    8.2   242     17   850.0    0.00 
 353   16:30   0.01   41.6    70   11.1   226     18   849.9    0.00 
 353   16:40   0.00   41.4    71   11.7   222     17   849.8    0.00 
 353   16:50   0.00   41.6    70    9.5   233     14   850.0    0.00 
 353   17:00   0.00   42.0    68    7.3   239     14   850.2    0.00 
 353   17:10   0.00   42.0    68    8.7   227     13   850.4    0.00 
 353   17:20   0.00   42.1    68    7.8   213     11   850.6    0.00 
 353   17:30   0.00   42.2    67    8.2   224     13   850.6    0.00 
 353   17:40   0.00   41.9    70    7.7   220     12   850.6    0.00 
 353   17:50   0.00   41.9    70    7.3   211     11   850.5    0.00 
 353   18:00   0.00   42.1    69    4.7   202     11   850.4    0.00 
 353   18:10   0.00   41.9    70    4.8   200      9   850.5    0.00 
 353   18:20   0.00   41.7    71    3.9   202      8   850.6    0.00 
 353   18:30   0.00   41.5    72    3.8   203      7   850.5    0.00 
 353   18:40   0.00   41.4    72    4.0   212      7   850.4    0.00 
 353   18:50   0.00   41.4    72    2.8   171      8   850.5    0.00 
 353   19:00   0.00   41.5    72    3.4   134      6   850.3    0.00 
 353   19:10   0.00   41.5    72    4.5   161      8   850.1    0.00 
 353   19:20   0.00   41.2    74    5.5   150      9   850.1    0.00 
 353   19:30   0.00   41.1    76    4.9   156      9   850.2    0.00 
 353   19:40   0.00   41.0    76    5.3   169      8   850.3    0.00 
 353   19:50   0.00   41.0    76    4.8   169      8   850.3    0.00 
 353   20:00   0.00   40.9    77    4.6   168      7   850.3    0.00 
 353   20:10   0.00   41.0    76    4.0   173      8   850.1    0.00 
 353   20:20   0.00   40.9    76    3.8   183      7   850.1    0.00 
 353   20:30   0.00   41.0    76    2.9   177      7   850.1    0.00 
 353   20:40   0.00   41.0    76    2.5   234      4   850.1    0.00 
 353   20:50   0.00   41.4    74    2.8   141      5   850.2    0.00 
 353   21:00   0.00   41.0    76    5.2   123      8   850.2    0.00 
 353   21:10   0.00   40.5    78    2.4   101      5   850.2    0.00 
 353   21:20   0.00   40.3    78    1.0   114      4   850.4    0.00 
 353   21:30   0.00   41.1    76    1.8   164      4   850.6    0.00 
 353   21:40   0.00   41.1    76    1.8   202      3   850.6    0.00 
 353   21:50   0.00   41.0    77    0.9   220      3   850.8    0.00 
 353   22:00   0.00   41.1    77    1.2   290      4   851.0    0.00 
 353   22:10   0.00   41.1    77    1.1   200      3   851.0    0.00 
 353   22:20   0.00   41.5    75    0.8   278      3   850.9    0.00 
 353   22:30   0.00   41.7    74    0.5   208      2   850.9    0.00 
 353   22:40   0.00   41.7    73    1.6   126      4   850.9    0.00 
 353   22:50   0.00   40.8    77    3.0    53      6   850.9    0.00 
 353   23:00   0.00   40.9    76    3.5    92      6   850.9    0.00 
 353   23:10   0.00   41.4    74    2.0   353      4   850.7    0.00 
 353   23:20   0.00   41.6    72    2.1    99      4   850.5    0.00 
 353   23:30   0.00   41.4    73    2.7   104      6   850.2    0.00 
 353   23:40   0.00   40.6    76    4.9   126      8   850.1    0.00 
 353   23:50   0.00   40.1    78    5.8   124      8   849.9    0.00 
 354    0:00   0.00   40.0    78    3.0   129      6   849.6    0.00 

Return to NNSC graphs page.


Western Regional Climate Center,wrcc@dri.edu